This is the latest recevied weather packets stored in our database for station/object W9PEM-13. If no packets are shown the sender has not sent any weather packets the latest 10 day(s).
| Time | Temp. | Humidity | Pressure | Rain* | Wind** | Luminosity | Snow |
|---|---|---|---|---|---|---|---|
| 1777842352 | 18.33° C | 49% | 974.3 hPa | 0.76 mm | - | 543 W/m² | - |
| 1777841992 | 18.33° C | 49% | 974.4 hPa | 0.76 mm | - | 573 W/m² | - |
| 1777841632 | 18.33° C | 49% | 974.7 hPa | 1.02 mm | - | 608 W/m² | - |
| 1777840913 | 17.78° C | 50% | 975 hPa | 1.02 mm | - | 554 W/m² | - |
| 1777839473 | 18.33° C | 48% | 975.2 hPa | 1.27 mm | - | 661 W/m² | - |
| 1777839233 | 18.33° C | 48% | 975.2 hPa | 1.27 mm | - | 715 W/m² | - |
| 1777838935 | 18.33° C | 48% | 975.3 hPa | 1.27 mm | - | 703 W/m² | - |
| 1777838335 | 18.33° C | 48% | 975.4 hPa | 0.76 mm | - | 727 W/m² | - |
| 1777837735 | 18.33° C | 46% | 975.7 hPa | 0.76 mm | - | 763 W/m² | - |
| 1777837135 | 18.33° C | 46% | 975.5 hPa | 0.76 mm | - | 770 W/m² | - |
| 1777835934 | 17.78° C | 49% | 975.8 hPa | 0.51 mm | - | 605 W/m² | - |
| 1777835815 | 17.78° C | 48% | 975.8 hPa | 0.51 mm | - | 707 W/m² | - |
| 1777835335 | 18.33° C | 48% | 975.8 hPa | 0.51 mm | - | 818 W/m² | - |
| 1777834436 | 17.78° C | 50% | 976.2 hPa | 0.76 mm | - | 853 W/m² | - |
| 1777833836 | 17.22° C | 50% | 976.2 hPa | 0.76 mm | - | 834 W/m² | - |
| 1777832396 | 16.67° C | 51% | 976.5 hPa | 1.52 mm | - | 852 W/m² | - |
| 1777831255 | 16.11° C | 53% | 976.8 hPa | 1.27 mm | - | 863 W/m² | - |
| 1777831075 | 16.11° C | 53% | 977.1 hPa | 1.27 mm | - | 868 W/m² | - |
| 1777830776 | 15.56° C | 54% | 976.9 hPa | 1.27 mm | - | 865 W/m² | - |
| 1777830177 | 15.56° C | 54% | 977.2 hPa | 1.02 mm | - | 867 W/m² | - |
| 1777829156 | 15° C | 54% | 977.5 hPa | 0.25 mm | - | 923 W/m² | - |
| 1777828556 | 14.44° C | 56% | 977.7 hPa | 0.25 mm | - | 841 W/m² | - |
| 1777827956 | 13.89° C | 60% | 978 hPa | 0 mm | - | 939 W/m² | - |
| 1777827596 | 13.33° C | 62% | 978.1 hPa | 0 mm | - | 417 W/m² | - |
| 1777827297 | 12.78° C | 63% | 978.3 hPa | 0 mm | - | 588 W/m² | - |
* Rain latest hour (hover to see other rain measurements)
** Current wind speed in m/s (hover to see current wind gust speed)